createdAt,value
2019-03-05T00:00:42.512Z,6.30
2019-03-05T00:03:12.985Z,6.40
2019-03-05T00:05:43.064Z,6.30
2019-03-05T00:08:13.224Z,6.40
2019-03-05T00:10:43.510Z,6.50
2019-03-05T00:13:13.384Z,6.60
2019-03-05T00:15:44.293Z,6.50
2019-03-05T00:18:14.213Z,6.50
2019-03-05T00:20:44.066Z,6.50
2019-03-05T00:23:16.360Z,6.50
2019-03-05T00:25:46.529Z,6.40
2019-03-05T00:28:27.722Z,6.50
2019-03-05T00:31:01.509Z,6.50
2019-03-05T00:34:00.404Z,6.50
2019-03-05T00:36:53.145Z,6.50
2019-03-05T00:40:12.047Z,6.40
2019-03-05T00:43:06.490Z,6.40
2019-03-05T00:45:55.900Z,6.30
2019-03-05T00:48:57.005Z,6.40
2019-03-05T00:51:38.812Z,6.40
2019-03-05T00:54:46.496Z,6.40
2019-03-05T00:58:11.565Z,6.50
2019-03-05T01:00:57.226Z,6.60
2019-03-05T01:04:00.380Z,6.60
2019-03-05T01:06:30.309Z,6.60
2019-03-05T01:09:00.584Z,6.60
2019-03-05T01:11:30.963Z,6.50
2019-03-05T01:14:01.231Z,6.40
2019-03-05T01:16:32.823Z,6.40
2019-03-05T01:19:03.251Z,6.30
2019-03-05T01:21:33.411Z,6.30
2019-03-05T01:24:03.273Z,6.40
2019-03-05T01:26:33.077Z,6.40
2019-03-05T01:29:03.470Z,6.30
2019-03-05T01:31:54.614Z,6.30
2019-03-05T01:34:44.089Z,6.20
2019-03-05T01:37:13.930Z,6.10
2019-03-05T01:39:49.943Z,5.90
2019-03-05T01:42:20.214Z,5.80
2019-03-05T01:44:50.724Z,5.70
2019-03-05T01:47:20.513Z,5.60
2019-03-05T01:49:50.631Z,5.50
2019-03-05T01:52:20.558Z,5.40
2019-03-05T01:54:50.290Z,5.40
2019-03-05T01:57:20.284Z,5.40
2019-03-05T01:59:49.972Z,5.30
2019-03-05T02:02:20.329Z,5.30
2019-03-05T02:04:51.108Z,5.40
2019-03-05T02:07:20.958Z,5.50
2019-03-05T02:09:51.027Z,5.50
2019-03-05T02:12:21.018Z,5.50
2019-03-05T02:14:51.030Z,5.50
2019-03-05T02:17:21.208Z,5.60
2019-03-05T02:19:52.289Z,5.60
2019-03-05T02:22:52.111Z,5.60
2019-03-05T02:25:45.466Z,5.50
2019-03-05T02:28:37.401Z,5.40
2019-03-05T02:31:37.618Z,5.60
2019-03-05T02:34:56.159Z,5.60
2019-03-05T02:38:09.708Z,5.60
2019-03-05T02:40:51.602Z,5.60
2019-03-05T02:44:00.099Z,5.50
2019-03-05T02:46:53.644Z,5.60
2019-03-05T02:49:59.337Z,5.60
2019-03-05T02:52:42.077Z,5.70
2019-03-05T02:55:47.687Z,5.80
2019-03-05T02:58:15.572Z,5.80
2019-03-05T03:01:03.354Z,5.70
2019-03-05T03:03:36.926Z,5.80
2019-03-05T03:06:19.459Z,5.80
2019-03-05T03:08:50.074Z,5.80
2019-03-05T03:11:19.991Z,5.80
2019-03-05T03:13:50.372Z,5.80
2019-03-05T03:16:20.537Z,5.70
2019-03-05T03:18:50.287Z,5.60
2019-03-05T03:21:20.386Z,5.60
2019-03-05T03:23:50.539Z,5.50
2019-03-05T03:26:20.798Z,5.40
2019-03-05T03:28:50.912Z,5.40
2019-03-05T03:31:21.187Z,5.30
2019-03-05T03:33:51.037Z,5.30
2019-03-05T03:36:20.876Z,5.30
2019-03-05T03:38:50.792Z,5.30
2019-03-05T03:41:20.522Z,5.30
2019-03-05T03:43:50.708Z,5.30
2019-03-05T03:46:21.075Z,5.30
2019-03-05T03:48:51.139Z,5.30
2019-03-05T03:51:20.996Z,5.30
2019-03-05T03:53:50.884Z,5.20
2019-03-05T03:56:20.898Z,5.10
2019-03-05T03:58:50.924Z,5.20
2019-03-05T04:01:21.057Z,5.20
2019-03-05T04:03:51.731Z,5.10
2019-03-05T04:06:21.818Z,5.00
2019-03-05T04:08:51.555Z,4.90
2019-03-05T04:11:21.735Z,4.80
2019-03-05T04:13:51.833Z,4.80
2019-03-05T04:16:21.944Z,4.80
2019-03-05T04:18:51.960Z,4.80
2019-03-05T04:21:22.096Z,4.90
2019-03-05T04:23:52.916Z,4.80
2019-03-05T04:26:22.768Z,4.90
2019-03-05T04:28:52.935Z,5.10
2019-03-05T04:31:22.777Z,5.20
2019-03-05T04:33:52.943Z,5.20
2019-03-05T04:36:23.116Z,5.20
2019-03-05T04:38:53.684Z,5.20
2019-03-05T04:41:24.507Z,5.30
2019-03-05T04:43:54.710Z,5.30
2019-03-05T04:46:39.265Z,5.50
2019-03-05T04:49:28.063Z,5.50
2019-03-05T04:52:03.896Z,5.50
2019-03-05T04:54:33.752Z,5.60
2019-03-05T04:57:03.589Z,5.60
2019-03-05T04:59:33.247Z,5.60
2019-03-05T05:02:03.304Z,5.60
2019-03-05T05:04:33.403Z,5.70
2019-03-05T05:07:03.244Z,5.70
2019-03-05T05:09:33.000Z,5.70
2019-03-05T05:12:02.765Z,5.70
2019-03-05T05:14:32.543Z,5.70
2019-03-05T05:17:02.503Z,5.80
2019-03-05T05:19:32.854Z,5.80
2019-03-05T05:22:02.692Z,5.80
2019-03-05T05:24:32.525Z,5.80
2019-03-05T05:27:02.719Z,5.80
2019-03-05T05:29:33.250Z,5.70
2019-03-05T05:32:03.262Z,5.70
2019-03-05T05:34:33.503Z,5.70
2019-03-05T05:37:03.715Z,5.70
2019-03-05T05:40:09.714Z,5.60
2019-03-05T05:42:39.696Z,5.60
2019-03-05T05:45:13.404Z,5.50
2019-03-05T05:47:43.400Z,5.40
2019-03-05T05:50:13.499Z,5.30
2019-03-05T05:52:43.703Z,5.30
2019-03-05T05:55:13.505Z,5.30
2019-03-05T05:57:43.721Z,5.20
2019-03-05T06:00:15.881Z,5.20
2019-03-05T06:02:45.804Z,5.20
2019-03-05T06:05:15.476Z,5.20
2019-03-05T06:07:45.742Z,5.20
2019-03-05T06:10:15.497Z,5.20
2019-03-05T06:12:45.719Z,5.20
2019-03-05T06:15:15.731Z,5.10
2019-03-05T06:17:45.556Z,5.10
2019-03-05T06:20:16.317Z,5.10
2019-03-05T06:22:46.498Z,5.10
2019-03-05T06:25:16.341Z,5.10
2019-03-05T06:27:46.530Z,5.00
2019-03-05T06:30:16.827Z,5.00
2019-03-05T06:32:47.044Z,4.90
2019-03-05T06:35:16.911Z,4.90
2019-03-05T06:37:47.091Z,4.80
2019-03-05T06:40:17.493Z,4.80
2019-03-05T06:42:47.428Z,4.70
2019-03-05T06:45:17.679Z,4.70
2019-03-05T06:47:47.358Z,4.80
2019-03-05T06:50:17.559Z,4.80
2019-03-05T06:52:47.493Z,4.70
2019-03-05T06:55:36.593Z,4.70
2019-03-05T06:58:06.388Z,4.70
2019-03-05T07:00:37.824Z,4.70
2019-03-05T07:03:08.516Z,4.70
2019-03-05T07:06:14.235Z,4.70
2019-03-05T07:09:05.352Z,4.70
2019-03-05T07:12:18.016Z,4.70
2019-03-05T07:15:24.502Z,4.70
2019-03-05T07:17:59.019Z,4.70
2019-03-05T07:21:11.757Z,4.60
2019-03-05T07:24:35.192Z,4.70
2019-03-05T07:27:04.896Z,4.60
2019-03-05T07:29:34.708Z,4.60
2019-03-05T07:32:05.035Z,4.60
2019-03-05T07:34:35.457Z,4.60
2019-03-05T07:37:05.698Z,4.70
2019-03-05T07:39:35.493Z,4.70
2019-03-05T07:42:05.731Z,4.80
2019-03-05T07:44:35.798Z,4.80
2019-03-05T07:47:06.016Z,4.80
2019-03-05T07:49:43.738Z,4.80
2019-03-05T07:52:07.696Z,4.90
2019-03-05T07:54:37.729Z,5.00
2019-03-05T07:57:07.958Z,5.00
2019-03-05T07:59:38.055Z,5.10
2019-03-05T08:02:07.894Z,5.20
2019-03-05T08:04:38.932Z,5.30
2019-03-05T08:07:09.088Z,5.40
2019-03-05T08:09:39.607Z,5.50
2019-03-05T08:12:50.233Z,5.70
2019-03-05T08:16:17.815Z,5.70
2019-03-05T08:18:47.615Z,5.60
2019-03-05T08:21:17.433Z,5.60
2019-03-05T08:23:48.577Z,5.60
2019-03-05T08:26:19.117Z,5.60
2019-03-05T08:28:49.097Z,5.70
2019-03-05T08:31:19.226Z,5.70
2019-03-05T08:33:49.439Z,5.70
2019-03-05T08:36:19.346Z,5.70
2019-03-05T08:38:49.167Z,5.70
2019-03-05T08:41:18.839Z,5.70
2019-03-05T08:43:48.612Z,5.80
2019-03-05T08:46:18.398Z,5.80
2019-03-05T08:48:48.236Z,5.80
2019-03-05T08:51:17.976Z,5.80
2019-03-05T08:53:49.756Z,5.80
2019-03-05T08:56:19.633Z,5.90
2019-03-05T08:58:49.409Z,6.00
2019-03-05T09:01:19.220Z,5.80
2019-03-05T09:03:49.714Z,6.00
2019-03-05T09:06:20.154Z,6.00
2019-03-05T09:08:50.247Z,6.10
2019-03-05T09:11:20.610Z,6.10
2019-03-05T09:13:50.423Z,6.10
2019-03-05T09:16:20.136Z,6.20
2019-03-05T09:18:50.359Z,6.30
2019-03-05T09:21:20.942Z,6.40
2019-03-05T09:23:51.160Z,6.70
2019-03-05T09:26:21.582Z,7.00
2019-03-05T09:28:51.474Z,7.10
2019-03-05T09:31:21.128Z,7.10
2019-03-05T09:33:51.390Z,7.20
2019-03-05T09:36:21.131Z,7.60
2019-03-05T09:38:50.885Z,7.50
2019-03-05T09:41:20.679Z,7.70
2019-03-05T09:43:50.696Z,7.70
2019-03-05T09:46:20.664Z,8.00
2019-03-05T09:48:50.890Z,7.90
2019-03-05T09:51:21.031Z,8.00
2019-03-05T09:53:50.880Z,8.10
2019-03-05T09:56:20.688Z,8.10
2019-03-05T09:58:50.529Z,7.90
2019-03-05T10:01:20.522Z,7.90
2019-03-05T10:03:50.352Z,8.00
2019-03-05T10:06:21.242Z,7.90
2019-03-05T10:08:51.103Z,8.00
2019-03-05T10:11:21.072Z,8.30
2019-03-05T10:13:50.811Z,8.40
2019-03-05T10:16:20.808Z,8.20
2019-03-05T10:18:51.125Z,8.50
2019-03-05T10:21:20.940Z,8.80
2019-03-05T10:23:52.179Z,8.80
2019-03-05T10:26:22.739Z,8.70
2019-03-05T10:28:52.616Z,8.80
2019-03-05T10:31:22.457Z,8.90
2019-03-05T10:33:52.195Z,8.60
2019-03-05T10:36:21.959Z,8.90
2019-03-05T10:38:57.404Z,9.10
2019-03-05T10:41:23.322Z,9.20
2019-03-05T10:43:53.135Z,9.50
2019-03-05T10:46:22.853Z,9.90
2019-03-05T10:48:52.677Z,9.90
2019-03-05T10:51:22.491Z,10.10
2019-03-05T10:53:52.560Z,9.90
2019-03-05T10:56:22.597Z,9.90
2019-03-05T10:58:52.518Z,10.10
2019-03-05T11:01:22.741Z,9.90
2019-03-05T11:03:52.730Z,9.70
2019-03-05T11:06:23.314Z,9.70
2019-03-05T11:08:53.250Z,9.60
2019-03-05T11:11:23.223Z,9.90
2019-03-05T11:13:53.282Z,9.90
2019-03-05T11:16:30.757Z,9.80
2019-03-05T11:18:55.403Z,9.30
2019-03-05T11:21:25.185Z,9.40
2019-03-05T11:23:55.145Z,9.60
2019-03-05T11:26:25.330Z,9.50
2019-03-05T11:28:55.891Z,9.50
2019-03-05T11:31:26.184Z,9.60
2019-03-05T11:33:56.425Z,9.60
2019-03-05T11:36:26.303Z,9.80
2019-03-05T11:38:56.319Z,9.40
2019-03-05T11:41:26.665Z,9.30
2019-03-05T11:43:57.419Z,9.20
2019-03-05T11:46:27.190Z,9.30
2019-03-05T11:48:57.418Z,8.90
2019-03-05T11:51:27.793Z,8.80
2019-03-05T11:53:57.843Z,8.90
2019-03-05T11:56:28.346Z,9.10
2019-03-05T11:58:58.369Z,9.20
2019-03-05T12:01:32.445Z,9.30
2019-03-05T12:04:02.531Z,9.10
2019-03-05T12:06:32.348Z,8.90
2019-03-05T12:09:02.299Z,8.80
2019-03-05T12:11:32.067Z,8.50
2019-03-05T12:14:01.896Z,8.50
2019-03-05T12:16:31.728Z,8.70
2019-03-05T12:19:02.240Z,8.70
2019-03-05T12:21:32.373Z,8.70
2019-03-05T12:24:02.266Z,8.50
2019-03-05T12:26:32.455Z,8.50
2019-03-05T12:29:02.327Z,8.70
2019-03-05T12:31:32.267Z,9.00
2019-03-05T12:34:02.091Z,9.10
2019-03-05T12:36:31.906Z,8.90
2019-03-05T12:39:01.752Z,8.90
2019-03-05T12:41:31.538Z,9.20
2019-03-05T12:44:01.348Z,9.40
2019-03-05T12:46:31.561Z,9.40
2019-03-05T12:49:01.533Z,9.30
2019-03-05T12:51:31.289Z,9.50
2019-03-05T12:54:01.316Z,9.50
2019-03-05T12:56:31.772Z,9.70
2019-03-05T12:59:01.752Z,9.90
2019-03-05T13:01:31.453Z,10.10
2019-03-05T13:04:01.771Z,10.20
2019-03-05T13:06:31.693Z,10.10
2019-03-05T13:09:01.507Z,9.90
2019-03-05T13:11:31.711Z,9.80
2019-03-05T13:14:06.121Z,10.10
2019-03-05T13:16:35.283Z,10.30
2019-03-05T13:19:05.354Z,10.50
2019-03-05T13:21:36.164Z,10.20
2019-03-05T13:24:06.024Z,10.00
2019-03-05T13:26:35.915Z,10.20
2019-03-05T13:29:06.042Z,10.10
2019-03-05T13:31:38.751Z,9.90
2019-03-05T13:34:08.061Z,9.90
2019-03-05T13:36:38.234Z,10.00
2019-03-05T13:39:08.291Z,9.80
2019-03-05T13:41:38.364Z,9.60
2019-03-05T13:44:32.255Z,9.60
2019-03-05T13:47:00.899Z,9.40
2019-03-05T13:50:00.002Z,9.40
2019-03-05T13:53:22.597Z,9.40
2019-03-05T13:56:28.156Z,9.20
2019-03-05T13:59:10.994Z,9.30
2019-03-05T14:01:40.937Z,9.50
2019-03-05T14:04:18.702Z,9.80
2019-03-05T14:07:38.046Z,10.10
2019-03-05T14:10:07.873Z,10.20
2019-03-05T14:12:38.058Z,10.40
2019-03-05T14:15:08.715Z,10.60
2019-03-05T14:17:42.003Z,10.60
2019-03-05T14:20:15.197Z,10.30
2019-03-05T14:22:45.289Z,10.00
2019-03-05T14:25:15.800Z,10.10
2019-03-05T14:27:45.747Z,10.20
2019-03-05T14:30:17.654Z,10.50
2019-03-05T14:32:47.712Z,10.80
2019-03-05T14:35:19.574Z,10.50
2019-03-05T14:37:49.560Z,10.20
2019-03-05T14:40:24.782Z,9.90
2019-03-05T14:42:54.667Z,10.00
2019-03-05T14:45:27.130Z,10.00
2019-03-05T14:47:59.170Z,10.20
2019-03-05T14:50:28.923Z,10.30
2019-03-05T14:52:58.832Z,10.50
2019-03-05T14:55:29.016Z,10.70
2019-03-05T14:57:58.833Z,10.70
2019-03-05T15:00:28.985Z,10.80
2019-03-05T15:02:59.219Z,10.80
2019-03-05T15:05:29.199Z,10.70
2019-03-05T15:07:59.051Z,10.50
2019-03-05T15:10:28.808Z,10.40
2019-03-05T15:12:58.563Z,10.50
2019-03-05T15:15:30.284Z,10.40
2019-03-05T15:18:00.420Z,10.40
2019-03-05T15:20:30.214Z,10.60
2019-03-05T15:23:00.447Z,10.30
2019-03-05T15:25:30.646Z,10.30
2019-03-05T15:28:00.539Z,10.20
2019-03-05T15:30:30.362Z,10.20
2019-03-05T15:33:00.487Z,10.40
2019-03-05T15:35:30.339Z,10.40
2019-03-05T15:38:00.546Z,10.50
2019-03-05T15:40:30.319Z,10.50
2019-03-05T15:43:01.053Z,10.40
2019-03-05T15:45:31.344Z,10.20
2019-03-05T15:48:01.850Z,10.20
2019-03-05T15:50:31.613Z,10.20
2019-03-05T15:53:01.495Z,10.10
2019-03-05T15:55:31.229Z,10.10
2019-03-05T15:58:01.064Z,10.10
2019-03-05T16:00:31.258Z,10.00
2019-03-05T16:03:01.304Z,9.90
2019-03-05T16:05:31.276Z,9.80
2019-03-05T16:08:01.592Z,9.80
2019-03-05T16:10:31.426Z,9.80
2019-03-05T16:13:01.697Z,9.70
2019-03-05T16:15:31.858Z,9.80
2019-03-05T16:18:05.290Z,9.90
2019-03-05T16:20:33.317Z,9.80
2019-03-05T16:23:03.444Z,9.70
2019-03-05T16:25:33.225Z,9.60
2019-03-05T16:28:06.390Z,9.60
2019-03-05T16:30:52.994Z,9.40
2019-03-05T16:33:41.637Z,9.40
2019-03-05T16:36:30.569Z,9.30
2019-03-05T16:39:16.895Z,9.20
2019-03-05T16:42:06.224Z,9.00
2019-03-05T16:44:55.279Z,8.90
2019-03-05T16:47:45.540Z,8.80
2019-03-05T16:50:32.895Z,8.70
2019-03-05T16:53:27.427Z,8.60
2019-03-05T16:56:15.423Z,8.50
2019-03-05T16:59:02.991Z,8.40
2019-03-05T17:02:01.144Z,8.30
2019-03-05T17:05:05.203Z,8.20
2019-03-05T17:07:46.924Z,8.20
2019-03-05T17:10:47.869Z,8.10
2019-03-05T17:13:17.815Z,7.90
2019-03-05T17:15:47.890Z,7.90
2019-03-05T17:18:17.770Z,7.80
2019-03-05T17:20:47.644Z,7.80
2019-03-05T17:23:17.496Z,7.70
2019-03-05T17:25:47.267Z,7.70
2019-03-05T17:28:17.017Z,7.70
2019-03-05T17:30:47.864Z,7.60
2019-03-05T17:33:18.008Z,7.60
2019-03-05T17:35:47.972Z,7.50
2019-03-05T17:38:17.718Z,7.40
2019-03-05T17:40:48.098Z,7.40
2019-03-05T17:43:17.753Z,7.30
2019-03-05T17:45:47.466Z,7.30
2019-03-05T17:48:17.241Z,7.30
2019-03-05T17:50:47.080Z,7.20
2019-03-05T17:53:17.375Z,7.20
2019-03-05T17:55:47.709Z,7.20
2019-03-05T17:58:17.461Z,7.10
2019-03-05T18:00:48.808Z,7.10
2019-03-05T18:03:19.007Z,7.10
2019-03-05T18:05:49.254Z,7.10
2019-03-05T18:08:19.742Z,7.00
2019-03-05T18:10:50.478Z,7.10
2019-03-05T18:13:22.294Z,7.10
2019-03-05T18:15:53.046Z,7.10
2019-03-05T18:18:24.152Z,7.10
2019-03-05T18:20:54.314Z,7.10
2019-03-05T18:23:24.137Z,7.00
2019-03-05T18:25:53.863Z,7.10
2019-03-05T18:28:23.760Z,7.00
2019-03-05T18:30:53.902Z,7.00
2019-03-05T18:33:24.159Z,6.90
2019-03-05T18:35:53.967Z,6.90
2019-03-05T18:38:23.715Z,6.90
2019-03-05T18:40:54.184Z,6.90
2019-03-05T18:43:24.042Z,6.80
2019-03-05T18:45:53.798Z,6.70
2019-03-05T18:48:23.888Z,6.70
2019-03-05T18:50:54.117Z,6.80
2019-03-05T18:53:23.826Z,6.70
2019-03-05T18:55:55.295Z,6.80
2019-03-05T18:58:25.217Z,6.70
2019-03-05T19:00:55.510Z,6.70
2019-03-05T19:03:25.549Z,6.60
2019-03-05T19:05:55.439Z,6.60
2019-03-05T19:08:25.265Z,6.50
2019-03-05T19:10:55.785Z,6.60
2019-03-05T19:13:25.581Z,6.60
2019-03-05T19:15:55.798Z,6.50
2019-03-05T19:18:26.521Z,6.60
2019-03-05T19:20:56.234Z,6.60
2019-03-05T19:23:25.920Z,6.50
2019-03-05T19:25:55.877Z,6.60
2019-03-05T19:28:25.695Z,6.50
2019-03-05T19:30:56.005Z,6.50
2019-03-05T19:33:25.688Z,6.40
2019-03-05T19:35:55.976Z,6.40
2019-03-05T19:38:26.092Z,6.40
2019-03-05T19:40:56.062Z,6.50
2019-03-05T19:43:26.245Z,6.40
2019-03-05T19:45:56.378Z,6.40
2019-03-05T19:48:26.895Z,6.40
2019-03-05T19:50:56.855Z,6.30
2019-03-05T19:53:26.863Z,6.30
2019-03-05T19:55:56.840Z,6.20
2019-03-05T19:58:27.289Z,6.20
2019-03-05T20:01:02.157Z,6.10
2019-03-05T20:03:32.372Z,6.10
2019-03-05T20:06:02.277Z,6.10
2019-03-05T20:08:39.364Z,6.00
2019-03-05T20:11:04.349Z,6.00
2019-03-05T20:13:34.502Z,5.90
2019-03-05T20:16:05.066Z,5.90
2019-03-05T20:18:35.155Z,5.80
2019-03-05T20:21:04.909Z,5.80
2019-03-05T20:23:35.076Z,5.80
2019-03-05T20:26:05.203Z,5.80
2019-03-05T20:28:35.975Z,5.80
2019-03-05T20:31:05.979Z,5.70
2019-03-05T20:33:36.349Z,5.70
2019-03-05T20:36:06.539Z,5.70
2019-03-05T20:38:36.481Z,5.70
2019-03-05T20:41:06.478Z,5.70
2019-03-05T20:43:36.600Z,5.70
2019-03-05T20:46:14.131Z,5.70
2019-03-05T20:48:44.016Z,5.60
2019-03-05T20:51:14.535Z,5.50
2019-03-05T20:53:44.251Z,5.50
2019-03-05T20:56:15.151Z,5.40
2019-03-05T20:58:45.017Z,5.30
2019-03-05T21:01:15.086Z,5.30
2019-03-05T21:03:44.943Z,5.30
2019-03-05T21:06:14.865Z,5.30
2019-03-05T21:08:44.671Z,5.30
2019-03-05T21:11:15.042Z,5.30
2019-03-05T21:13:45.582Z,5.40
2019-03-05T21:16:16.876Z,5.30
2019-03-05T21:18:46.761Z,5.30
2019-03-05T21:21:17.373Z,5.30
2019-03-05T21:23:47.575Z,5.30
2019-03-05T21:26:18.557Z,5.20
2019-03-05T21:28:48.634Z,5.20
2019-03-05T21:31:18.366Z,5.10
2019-03-05T21:33:48.288Z,5.20
2019-03-05T21:36:18.848Z,5.20
2019-03-05T21:38:50.407Z,5.20
2019-03-05T21:41:20.550Z,5.20
2019-03-05T21:43:50.978Z,5.20
2019-03-05T21:46:20.604Z,5.30
2019-03-05T21:48:52.117Z,5.30
2019-03-05T21:51:22.017Z,5.30
2019-03-05T21:53:52.252Z,5.30
2019-03-05T21:56:21.839Z,5.40
2019-03-05T21:58:51.615Z,5.40
2019-03-05T22:01:21.984Z,5.40
2019-03-05T22:03:52.047Z,5.50
2019-03-05T22:06:21.700Z,5.50
2019-03-05T22:08:51.595Z,5.50
2019-03-05T22:11:21.314Z,5.50
2019-03-05T22:13:50.952Z,5.50
2019-03-05T22:16:21.305Z,5.60
2019-03-05T22:18:51.023Z,5.60
2019-03-05T22:21:20.716Z,5.60
2019-03-05T22:23:50.439Z,5.70
2019-03-05T22:26:20.228Z,5.70
2019-03-05T22:28:49.953Z,5.70
2019-03-05T22:31:20.332Z,5.80
2019-03-05T22:33:49.992Z,5.80
2019-03-05T22:36:20.474Z,5.80
2019-03-05T22:38:50.909Z,5.80
2019-03-05T22:41:20.532Z,5.90
2019-03-05T22:43:50.251Z,5.90
2019-03-05T22:46:20.052Z,5.90
2019-03-05T22:48:50.547Z,5.90
2019-03-05T22:51:20.274Z,5.90
2019-03-05T22:53:50.280Z,6.00
2019-03-05T22:56:20.173Z,6.00
2019-03-05T22:58:50.526Z,6.00
2019-03-05T23:01:51.081Z,6.00
2019-03-05T23:04:43.728Z,6.00
2019-03-05T23:07:14.157Z,6.10
2019-03-05T23:09:43.920Z,6.10
2019-03-05T23:12:13.979Z,6.10
2019-03-05T23:14:44.153Z,6.20
2019-03-05T23:17:14.699Z,6.20
2019-03-05T23:19:44.502Z,6.20
2019-03-05T23:22:15.062Z,6.30
2019-03-05T23:24:45.183Z,6.30
2019-03-05T23:27:15.240Z,6.30
2019-03-05T23:29:46.204Z,6.40
2019-03-05T23:32:17.585Z,6.40
2019-03-05T23:34:47.652Z,6.40
2019-03-05T23:37:17.839Z,6.50
2019-03-05T23:39:47.846Z,6.50
2019-03-05T23:42:17.886Z,6.50
2019-03-05T23:44:47.514Z,6.50
2019-03-05T23:47:17.104Z,6.50
2019-03-05T23:49:47.060Z,6.50
2019-03-05T23:52:16.870Z,6.60
2019-03-05T23:54:47.108Z,6.60
2019-03-05T23:57:16.794Z,6.60
2019-03-05T23:59:46.607Z,6.60
